Fville, New York
Current Conditions -  °F | °C
As of 8:54 PM on Wednesday 26 Nov 2014 (Local Time) from KSYR Reporting Station
Light Snow Light Snow  
Wind Chill: 22°   Ceiling: 3100
Heat Index: 30°   Visibility: 3mi
Dew Point: 28°   Wind: 8mph
Humidity: 92%   Direction: 320°NW
Pressure: 30.02"   Gusts: NA
Location:  43.0351°N, 75.9986°W
Report Text: KSYR 270154Z 32007KT 3SM -SN BR SCT006 OVC031 M01/M02 A3002 RMK AO2 VIS 2 NW SLP165 P0001 T10111022
Loading
Personal Weather Stations






























Interactive Weather Map New forecast layout! Learn more

10-Day Weather Forecast

Advertisements
Track Severe Weather on mobile